Racecast

Ella Kurto

Toledo (WA) · So · Compare head to head

Athlete rating 137.1 2022 TF season
Best race 148.9 XC
Races 124
Seasons 10 2016 — 2025

RankedNation #304·NY #30·NY DA #10·2 #3·2 DA #9·Team #2 ?

Rating scale ?

Cross Country

2024 XC

Toledo (WA) · Grade SO-2

Date Meet Event Result Place Rating Difficulty PR/SR Flags
2024-10-04 Sydney Marovitz Golf Course 6000m 22:32.5 38th · 7th on team -0.087 ★PR ★CR SR CSR
2024-09-14 Ball State University 6000m 24:34.6 20th · 6th on team -0.063 ★CR SR CSR

2023 XC

Toledo (WA) · Grade So

Date Meet Event Result Place Rating Difficulty PR/SR Flags
2023-09-15 BGSU 6000m 23:21.4 58th · 8th on team -0.065 PR ★CR SR CSR
2023-09-01 Silvercreek Metro Park 5000m 19:46.8 67th · 3rd on team -0.021 ★CR SR CSR

2021 XC 140.0

Saratoga Springs (NY) · Grade 12

Date Meet Event Result Place Rating Difficulty PR/SR Flags
2021-11-27 Bowdoin Park 5000m 18:33.2 3rd · 3rd on team 145.4 +0.018 RSR
2021-11-20 Bowdoin Park 5000m 18:25.6 6th · 3rd on team 144.7 +0.018 CSR RSR
2021-11-13 Chenango Valley State Park 5000m 18:21.8 11th · 5th on team 139.9 -0.025 ★CR SR CSR
2021-11-05 Saratoga Spa Park 4828m 17:24.2 3rd · 3rd on team 139.9 -0.037 SR CSR RSR
2021-10-30 Saratoga Spa Park 4828m 17:39.1 3rd · 3rd on team 138.9 -0.037 SR CSR RSR
2021-10-16 Saratoga Spa Park 4828m 17:52.2 3rd · 3rd on team 138.3 -0.037 SR CSR
2021-10-12 Saratoga Spa Park 4828m 17:59 2nd · 2nd on team 137.0 -0.037 SR CSR
2021-10-02 Tawasentha Park 4586m 17:07.8 2nd · 2nd on team 137.5 -0.018 ★PR ★CR SR CSR
2021-09-11 New Scotland Town Park 5000m 18:51.6 1st · 1st on team 138.3 -0.013 ★CR SR CSR RSR

2020 XC 139.3

Saratoga Springs (NY) · Grade 11

Date Meet Event Result Place Rating Difficulty PR/SR Flags
2020-11-22 Saratoga Spa Park 5000m 17:10.3 1st · 1st on team 139.2 -0.087 ★PR ★CR SR CSR
2020-10-27 Unknown 4023m 14:35 1st · 1st on team 142.2 ★CR SR CSR
2020-10-19 Saratoga Spa Park 4828m 17:42.4 1st · 1st on team 137.2 -0.037 SR CSR
2020-10-10 Saratoga Spa Park 5000m 18:06.8 1st · 1st on team 134.2 -0.087 CR CSR
2020-10-05 JFK SportsComplex 5000m 17:53.6 1st · 1st on team 143.9 -0.022 PR ★CR SR CSR RSR

2019 XC 142.0

Saratoga Springs (NY) · Grade 10

Date Meet Event Result Place Rating Difficulty PR/SR Flags
2019-12-07 Glendoveer Golf Course 5000m 17:58.3 14th · 1st on team 148.9 +0.031 PR ★CR ★R SR CSR RSR
2019-11-30 Bowdoin Park 5000m 18:28.7 6th · 1st on team 143.0 +0.018
2019-11-23 Bowdoin Park 5000m 18:18.8 3rd · 1st on team 144.3 +0.018 ★CR SR CSR RSR
2019-11-16 Plattsburgh State Fieldhouse 4828m 16:41.8 6th · 1st on team 139.1 ★PR ★CR SR CSR
2019-11-04 Saratoga Spa Park 4828m 17:02.3 1st · 1st on team 141.9 -0.037 PR ★CR SR CSR RSR
2019-10-12 Saratoga Spa Park 4892m 17:20 1st · 1st on team 137.9 -0.058 ★PR ★CR SR CSR
2019-08-31 Murray Athletic Center 4023m 14:33.4 1st · 1st on team 139.0 -0.017 ★PR ★CR SR CSR RSR

2018 XC 137.7

Saratoga Springs (NY) · Grade 9

Date Meet Event Result Place Rating Difficulty PR/SR Flags
2018-11-24 Bowdoin Park 5000m 18:40.8 11th · 2nd on team 140.7 +0.018 CR CSR RSR
2018-11-10 Sunken Meadow State Park 5000m 18:35.3 6th · 2nd on team 139.6 -0.006 ★CR CSR RSR
2018-11-02 Saratoga Spa Park 4892m 17:37.8 3rd · 2nd on team 136.7 -0.058 PR CR SR CSR
2018-10-19 Saratoga Spa Park 4828m 17:40.2 1st · 1st on team 136.8 -0.037 PR CR SR CSR
2018-10-06 WakeMed Soccer Park 5000m 18:13.9 16th · 2nd on team 138.5 -0.023 PR ★CR SR CSR RSR
2018-08-25 Great Meadow Park 5000m 19:11 6th · 2nd on team 133.8 -0.013 PR ★CR SR CSR RSR

2017 XC 132.2

Kinetic Running (NY) · Grade 8

Date Meet Event Result Place Rating Difficulty PR/SR Flags
2017-11-19 Smithfield High School 4000m 15:47.5 41st · 1st on team 138.8 -0.061 ★PR ★CR R SR CSR RSR
2017-11-04 Saratoga Spa Park 4000m 17:09.3 2nd · 1st on team 135.4 -0.006 PR ★CR R SR CSR RSR
2017-10-20 Saratoga Spa Park 5000m 20:54 18th · 6th on team 130.2 -0.087 PR CR SR CSR
2017-10-14 Saratoga Spa Park 3000m 12:59.1 7th · 4th on team 132.4 +0.007 ★PR ★CR R SR CSR RSR
2017-10-07 WakeMed Soccer Park 5000m 22:15.6 4th · 4th on team 130.8 -0.023 PR CR R SR CSR RSR
2017-09-08 Colonie Town Park 2413m 10:54.6 27th · 5th on team 125.6 +0.018 ★PR ★CR R SR CSR RSR

2016 XC 122.6

Kinetic Running (NY) · Grade 7

Date Meet Event Result Place Rating Difficulty PR/SR Flags
2016-11-20 Saratoga State Park 3000m 13:59 98th · 4th on team 122.6 +0.005 PR ★CR R SR CSR RSR

Track & Field

2025 TF

Toledo (WA) · Grade So

Date Meet Event Result Place Rating Difficulty PR/SR Flags
2025-02-08 Michigan Invitational 800m 2:22.37 16th · 1st on team -0.039 SR
2025-01-17 Al Campbell Invitational 800m 2:23.81 10th · 2nd on team -0.035 SR
2025-01-11 2025 Wolverine Invitational 1mile 5:23.46 20th · 4th on team -0.039
2024-12-06 GVSU Holiday Open 1mile 5:19.81 28th · 3rd on team -0.042 SR

2024 TF

Toledo (WA) · Grade Fr

Date Meet Event Result Place Rating Difficulty PR/SR Flags
2024-02-16 2024 Silverston Invitational 1mile 5:17.12 9th · 1st on team -0.039
2024-01-27 2024 Michigan Invitational 1mile 5:12.07 39th · 5th on team -0.039 SR
2024-01-13 2024 Wolverine Invitational 1mile 5:24.11 35th · 9th on team -0.039 SR

2023 TF

Unattached (TX) · Grade None

Date Meet Event Result Place Rating Difficulty PR/SR Flags
2023-04-28 Meet results → Women's 1500 Meters 4:42.87 7th · 3rd on team
2023-04-21 Meet results → Women's 5000 Meters 17:01.61 5th · 2nd on team ★PR SR
2023-03-31 Meet results → Women's 1500 Meters 4:41.72 3rd · 1st on team ★PR SR

2022 TF 135.4

Saratoga Springs (NY) · Grade 12

Date Meet Event Result Place Rating Difficulty PR/SR Flags
2022-06-11 NYSPHSAA Outdoor Track & Field Championships 1500m 4:32.32 7th · 2nd on team 138.6 -0.043 ★PR SR RSR
2022-06-03 Section 2 State Qualifier 1500m 4:34.8 2nd · 2nd on team 138.4 -0.039 RSR
2022-05-25 Section 2 Group 1 1500m 4:36.71 2nd · 2nd on team 136.5 -0.041
2022-05-25 Section 2 Group 1 800m 2:17.62 2nd · 1st on team 132.9 -0.041
2022-05-18 Girls Suburban Council Championships 800m 2:14.44 2nd · 1st on team 134.3 -0.053 ★PR SR
2022-05-18 Girls Suburban Council Championships 1500m 4:34.49 2nd · 2nd on team 136.2 -0.053 SR
2022-05-18 Girls Suburban Council Championships 3000m 10:11.98 4th · 3rd on team 132.7 -0.053
2022-05-14 Glen Loucks Games 3200m 10:29.47 3rd · 2nd on team 137.0 -0.057 SR
2022-05-11 Shaker vs Saratoga and Bethlehem 800m 2:18.51 3rd · 2nd on team 134.6 -0.025 PR SR
2022-02-26 Ocean Breeze Elite HS Invitational 1000m 2:54.44 3rd · 1st on team 134.8 -0.053 ★PR SR
2022-02-06 New Balance Indoor Grand Prix 1500m 4:41.68 7th · 7th on team 132.8 -0.053
2022-02-06 New Balance Indoor Grand Prix 1mile 4:59.7 5th · 5th on team 135.3 -0.053
2022-01-29 Section 2 Division I Championship 3000m 10:19.62 1st · 1st on team 134.5 -0.037
2022-01-29 Section 2 Division I Championship 1500m 4:42.74 3rd · 3rd on team 137.2 -0.037 RSR
2022-01-23 The TCITL Frank DeMasi Utica Invitational 3000m 9:58.97 1st · 1st on team 136.9 -0.046 SR RSR
2022-01-15 Section 2 League Meets 6 600m 1:45.1 1st · 1st on team -0.037 ★PR SR
2021-12-27 Boston Holiday Challenge 1000m 2:56.06 2nd · 2nd on team 134.6 -0.049 PR SR RSR
2021-12-27 MSTCA Boston Holiday Classic 1000m 2:56.06 2nd · 2nd on team 134.6 -0.049
2021-12-18 Race results → 1mile 4:54.92 2nd · 2nd on team SR
2021-12-18 Race results → 1500m 4:36.02 2nd · 2nd on team SR

2021 TF 140.1

Kinetic Running (NY) · Grade 11

Date Meet Event Result Place Rating Difficulty PR/SR Flags
2021-06-19 New York State Showcase 2miles 10:34.47 1st · 1st on team 139.5 -0.047 SR
2021-05-22 Colonie Relay Carnival 1500m 4:35.65 3rd · 3rd on team 138.1 -0.041 SR
2021-03-13 Ocean Breeze Elite Invitational 3000m 9:41.5 1st · 1st on team 142.7 -0.053 SR RSR

2020 TF 138.7

Saratoga Springs (NY) · Grade 10

Date Meet Event Result Place Rating Difficulty PR/SR Flags
2020-02-23 Section 2 State Qualifier 3000m 9:49.78 1st · 1st on team 143.8 -0.010 SR RSR
2020-02-16 Section 2 Championship - Division 1 1500m 4:41.58 1st · 1st on team 139.5 -0.010
2020-02-16 Section 2 Championship - Division 1 3000m 10:14.56 1st · 1st on team 138.0 -0.010
2020-02-09 Suburban Council Championships 1500m 4:39.99 1st · 1st on team 140.3 -0.010
2020-02-09 Suburban Council Championships 3000m 10:10.92 1st · 1st on team 138.8 -0.010
2020-02-08 NYRR Millrose Games 1500m 4:36.87 14th · 1st on team 136.6 -0.050
2020-02-08 NYRR Millrose Games 1mile 4:57.26 13th · 1st on team 137.9 -0.050
2020-01-25 New Balance Indoor Grand Prix 1mile 4:52.31 3rd · 3rd on team 140.3 -0.049 ★PR SR RSR
2020-01-25 New Balance Indoor Grand Prix 1500m 4:34.43 3rd · 3rd on team 137.9 -0.049 PR SR
2020-01-04 Ocean Breeze Freedom Games 1000m 2:56.88 3rd · 1st on team 133.2 -0.053 PR SR
2020-01-04 Ocean Breeze Freedom Games 3000m 9:52.47 1st · 1st on team 139.6 -0.053 SR RSR
2019-12-27 Holiday Challenge 1mile 4:55.14 1st · 1st on team 139.0 -0.049 PR SR RSR

2019 TF 137.3

Kinetic Running (NY) · Grade 9

Date Meet Event Result Place Rating Difficulty PR/SR Flags
2019-06-16 2019 New Balance Nationals Outdoor 2miles 10:27.77 8th · 1st on team 141.3 -0.046 ★PR SR
2019-06-16 2019 New Balance Nationals Outdoor 3000m 9:50.6 9th · 1st on team 139.1 -0.046
2019-06-08 NYSPHSAA Outdoor Track & Field Championships 3000m 9:40.77 3rd · 2nd on team 141.9 -0.042 ★PR SR
2019-05-22 Section 2 Group 1 Sectional Championships 1500m 4:35.97 2nd · 2nd on team 138.1 -0.039
2019-05-22 Section 2 Group 1 Sectional Championships 3000m 10:03.12 2nd · 2nd on team 136.8 -0.039
2019-05-18 The Eddy Meet 3000m 9:46.76 2nd · 2nd on team 141.0 -0.046
2019-05-15 Section 2 Suburban Council Girls Varsity Championships 1500m 4:35.06 2nd · 2nd on team 137.6 -0.046 PR SR
2019-05-15 Section 2 Suburban Council Girls Varsity Championships 3000m 10:00.83 2nd · 2nd on team 136.0 -0.046
2019-05-11 Glen Loucks Games 3200m 10:21.61 3rd · 2nd on team 141.2 -0.053 ★PR SR
2019-04-20 New York Relays 3000m 9:57.27 2nd · 2nd on team 137.7 -0.050
2019-04-20 New York Relays 1mile 5:00.63 1st · 1st on team 136.7 -0.050 PR SR
2019-03-10 New Balance Nationals Indoor 3000m 10:00.93 26th · 1st on team 138.7 -0.050
2019-03-10 New Balance Nationals Indoor 2miles 10:41.13 25th · 1st on team 140.6 -0.050 PR SR
2019-03-02 NYSPHSAA/NYS Federation Indoor Championships 3000m 9:44.83 5th · 1st on team 141.9 -0.053 PR SR RSR
2019-02-24 Section 2 State Qualifier 3000m 10:04.13 1st · 1st on team 140.8 -0.010 RSR
2019-02-24 Section 2 State Qualifier 1500m 4:49.15 1st · 1st on team 135.9 -0.010
2019-02-18 Section 2 Division 1 Championships 1500m 4:48.9 2nd · 2nd on team 136.0 -0.010
2019-02-18 Section 2 Division 1 Championships 3000m 10:16.86 1st · 1st on team 137.9 -0.010
2019-02-03 Section 2 Suburban Council Championships 3000m 10:04.48 1st · 1st on team 140.8 -0.010 RSR
2019-02-03 Section 2 Suburban Council Championships 1500m 4:47.48 1st · 1st on team 136.7 -0.010 PR SR
2019-01-25 Utica Challenge Invitational 3000m 10:00.7 2nd · 1st on team 137.7 -0.046 PR SR RSR
2019-01-06 NY Section 2 Springfield College Invite 1000m 3:06.96 2nd · 2nd on team 128.6 -0.042 PR SR
2019-01-06 TCITL Springfield Invitational 1000m 3:06.96 2nd · 2nd on team 128.6 -0.042
2019-01-06 NY Section 2 Springfield College Invite 1500m 4:51.61 5th · 2nd on team 131.9 -0.042 PR SR
2019-01-06 TCITL Springfield Invitational 1500m 4:51.61 5th · 2nd on team 131.9 -0.042
2018-12-27 Tri Country Indoor Track League #4D 3000m 10:25.1 2nd · 2nd on team 134.5 -0.037 SR RSR

2018 TF 139.6

Saratoga Springs (NY) · Grade 8

Date Meet Event Result Place Rating Difficulty PR/SR Flags
2018-06-01 NYSPHSAA Section 2 Qualifier 3000m 10:39.41 8th · 3rd on team 140.1 -0.039
2018-05-23 NYSPHSAA Section 2 Group 1 Championships 3000m 10:17.9 4th · 2nd on team 145.1 -0.039
2018-05-19 The Eddy Meet 3000m 10:11.48 2nd · 2nd on team 145.6 -0.046 PR R SR RSR
2018-05-19 Eddy Meet 3000m 10:11.48 2nd · 2nd on team 145.6 -0.046
2018-05-16 Girls Varsity Suburban Championships 3000m 10:18.28 2nd · 2nd on team 143.3 -0.053 PR SR
2018-05-12 Glenn Loucks Games 3200m 10:57.93 7th · 2nd on team 143.3 -0.053 PR R SR RSR
2018-04-21 New York Relays 3000m 10:21.5 4th · 2nd on team 142.6 -0.050 PR R SR RSR
2018-03-11 New Balance Nationals Indoor 1mile 5:30.53 19th · 4th on team 134.0 -0.050 PR SR
2018-02-25 Section 2 State Qualifier 1500m 5:12.87 9th · 4th on team 135.6 -0.010 PR SR
2018-02-25 Section 2 State Qualifier 3000m 10:56.17 8th · 3rd on team 140.5 -0.010 PR R SR RSR
2018-02-04 Last Chance Invite 1000m 3:11 8th · 1st on team 136.1 -0.042 PR SR
2018-01-28 Section 2 Suburban Council Girls Championships 3000m 10:59.13 3rd · 2nd on team 138.2 -0.037 PR SR
2018-01-20 New Balance Games 2miles 11:46.2 9th · 3rd on team 138.4 -0.050 PR SR RSR
2017-12-27 Boston Holiday Challenge 1mile 5:35.36 4th · 3rd on team 131.8 -0.049 PR SR
2017-12-10 Section 2 League 3A Meet 3000m 11:26.4 6th · 6th on team 133.6 -0.016 PR SR RSR